Time;durP1;ratioP1;P1;durP2;ratioP2;P2;SDS_P1;SDS_P2;PMS_P1;PMS_P2;Temp;Humidity;BMP_temperature;BMP_pressure;BME280_temperature;BME280_humidity;BME280_pressure;Samples;Min_cycle;Max_cycle;Signal;HPM_P1;HPM_P2
2022/08/20 00:01:52;;;;;;;23.10;15.57;;;;;;;;;;5015601;28;20436;-92
2022/08/20 00:04:18;;;;;;;22.90;16.50;;;;;;;;;;5018544;28;20488;-92
2022/08/20 00:06:47;;;;;;;20.33;16.50;;;;;;;;;;4986945;28;20453;-93
2022/08/20 00:09:13;;;;;;;22.40;16.13;;;;;;;;;;5000602;28;20421;-90
2022/08/20 00:11:39;;;;;;;23.90;17.40;;;;;;;;;;4975934;28;20594;-91
2022/08/20 00:14:08;;;;;;;20.50;15.80;;;;;;;;;;4983724;28;20472;-92
2022/08/20 00:16:36;;;;;;;21.90;16.53;;;;;;;;;;4974143;28;20460;-92
2022/08/20 00:19:03;;;;;;;19.63;16.33;;;;;;;;;;4990233;28;20443;-92
2022/08/20 00:21:30;;;;;;;24.90;20.40;;;;;;;;;;4966235;28;20433;-92
2022/08/20 00:23:56;;;;;;;23.57;18.90;;;;;;;;;;4971676;28;20564;-92
2022/08/20 00:26:23;;;;;;;24.10;17.67;;;;;;;;;;4973004;28;20436;-93
2022/08/20 00:28:49;;;;;;;19.70;17.57;;;;;;;;;;4973255;28;20429;-92
2022/08/20 00:31:17;;;;;;;20.93;17.33;;;;;;;;;;4975454;28;20889;-91
2022/08/20 00:33:44;;;;;;;23.70;17.60;;;;;;;;;;4973561;28;20451;-91
2022/08/20 00:36:11;;;;;;;27.17;20.80;;;;;;;;;;4971038;28;20475;-92
2022/08/20 00:38:41;;;;;;;26.90;18.60;;;;;;;;;;4970636;28;20437;-93
2022/08/20 00:41:08;;;;;;;23.43;20.40;;;;;;;;;;4973474;28;20465;-94
2022/08/20 00:43:36;;;;;;;22.57;20.00;;;;;;;;;;4972033;28;20889;-92
2022/08/20 00:46:04;;;;;;;26.07;21.20;;;;;;;;;;4973041;28;20479;-94
2022/08/20 00:48:31;;;;;;;24.27;19.97;;;;;;;;;;4971595;28;20444;-92
2022/08/20 00:51:01;;;;;;;29.47;22.83;;;;;;;;;;4972656;28;20440;-93
2022/08/20 00:53:28;;;;;;;28.80;21.83;;;;;;;;;;4966871;28;20421;-93
2022/08/20 00:55:57;;;;;;;26.20;21.13;;;;;;;;;;4972529;28;20567;-92
2022/08/20 00:58:24;;;;;;;24.63;21.83;;;;;;;;;;4971686;28;20664;-93
2022/08/20 01:00:50;;;;;;;28.97;22.37;;;;;;;;;;4969775;28;20492;-94
2022/08/20 01:03:19;;;;;;;30.83;22.40;;;;;;;;;;4986006;28;20465;-93
2022/08/20 01:05:47;;;;;;;28.53;23.10;;;;;;;;;;5001899;28;20448;-92
2022/08/20 01:08:13;;;;;;;33.40;23.07;;;;;;;;;;4988805;28;20451;-92
2022/08/20 01:10:40;;;;;;;28.83;23.80;;;;;;;;;;4979186;28;21052;-93
2022/08/20 01:13:12;;;;;;;28.20;21.90;;;;;;;;;;4969388;28;20436;-93
2022/08/20 01:15:40;;;;;;;30.20;21.47;;;;;;;;;;4968710;28;20975;-91
2022/08/20 01:18:09;;;;;;;29.27;22.03;;;;;;;;;;4975504;28;20433;-92
2022/08/20 01:20:37;;;;;;;31.47;23.60;;;;;;;;;;4975411;28;20437;-92
2022/08/20 01:25:54;;;;;;;29.50;22.63;;;;;;;;;;4972735;28;20584;-91
2022/08/20 01:28:31;;;;;;;30.40;23.07;;;;;;;;;;4966264;28;20440;-91
2022/08/20 01:30:57;;;;;;;32.60;24.47;;;;;;;;;;4967044;28;20436;-92
2022/08/20 01:33:24;;;;;;;29.77;22.53;;;;;;;;;;4972665;28;20462;-92
2022/08/20 01:35:50;;;;;;;36.63;23.33;;;;;;;;;;4984786;28;20447;-92
2022/08/20 01:38:17;;;;;;;36.00;24.70;;;;;;;;;;4970129;28;20439;-92
2022/08/20 01:40:43;;;;;;;28.57;21.60;;;;;;;;;;4974306;28;20432;-92
2022/08/20 01:43:09;;;;;;;37.00;24.97;;;;;;;;;;4972505;28;20469;-92
2022/08/20 01:45:35;;;;;;;33.33;23.20;;;;;;;;;;4972903;28;20437;-93
2022/08/20 01:48:02;;;;;;;30.53;22.13;;;;;;;;;;4994513;28;20412;-93
2022/08/20 01:50:31;;;;;;;30.20;21.90;;;;;;;;;;4975453;28;20428;-92
2022/08/20 01:53:06;;;;;;;27.63;22.30;;;;;;;;;;4973950;28;20484;-92
2022/08/20 01:55:32;;;;;;;28.90;22.07;;;;;;;;;;4973478;28;20437;-92
2022/08/20 01:57:58;;;;;;;31.20;22.47;;;;;;;;;;4973177;28;20425;-93
2022/08/20 02:00:24;;;;;;;29.70;21.30;;;;;;;;;;4969303;28;20468;-90
2022/08/20 02:02:50;;;;;;;27.80;20.37;;;;;;;;;;4957850;28;20488;-92
2022/08/20 02:05:17;;;;;;;29.17;21.97;;;;;;;;;;4974287;28;20924;-91
2022/08/20 02:07:43;;;;;;;28.30;21.13;;;;;;;;;;4991219;28;20439;-92
2022/08/20 02:10:10;;;;;;;28.57;22.10;;;;;;;;;;4983703;28;20447;-92
2022/08/20 02:12:38;;;;;;;35.00;24.00;;;;;;;;;;4959300;28;20993;-91
2022/08/20 02:15:05;;;;;;;32.57;23.57;;;;;;;;;;4976220;28;20521;-92
2022/08/20 02:17:31;;;;;;;30.20;22.73;;;;;;;;;;4960290;28;20605;-92
2022/08/20 02:19:59;;;;;;;32.10;22.60;;;;;;;;;;4978511;28;20496;-91
2022/08/20 02:22:46;;;;;;;40.13;28.00;;;;;;;;;;4960441;28;20552;-92
2022/08/20 02:25:12;;;;;;;33.90;23.93;;;;;;;;;;4950188;28;20419;-92
2022/08/20 02:27:41;;;;;;;30.90;22.70;;;;;;;;;;4974836;28;20434;-93
2022/08/20 02:30:10;;;;;;;28.43;21.13;;;;;;;;;;4980260;28;20703;-92
2022/08/20 02:32:36;;;;;;;32.90;23.90;;;;;;;;;;4959769;28;20812;-92
2022/08/20 02:35:06;;;;;;;32.07;23.33;;;;;;;;;;4977028;28;20444;-92
2022/08/20 02:37:32;;;;;;;32.53;23.40;;;;;;;;;;4971071;28;20971;-90
2022/08/20 02:39:58;;;;;;;34.53;23.70;;;;;;;;;;4981465;28;20441;-93
2022/08/20 04:02:51;;;;;;;30.40;20.70;;;;;;;;;;4992639;28;21001;-92
2022/08/20 04:05:17;;;;;;;33.60;20.70;;;;;;;;;;4977212;28;21009;-91
2022/08/20 04:07:44;;;;;;;28.63;21.53;;;;;;;;;;4977457;28;20448;-92
2022/08/20 04:10:11;;;;;;;26.17;19.80;;;;;;;;;;5009697;28;20420;-91
2022/08/20 04:12:40;;;;;;;31.53;22.80;;;;;;;;;;4975741;28;20489;-90
2022/08/20 04:15:14;;;;;;;27.43;20.10;;;;;;;;;;4971655;28;20429;-91
2022/08/20 04:17:41;;;;;;;28.20;21.20;;;;;;;;;;4988625;28;21116;-90
2022/08/20 04:20:09;;;;;;;27.63;20.93;;;;;;;;;;4982314;28;21076;-90
2022/08/20 04:22:35;;;;;;;25.50;19.20;;;;;;;;;;4971853;28;20575;-91
2022/08/20 04:25:01;;;;;;;24.37;18.70;;;;;;;;;;4975044;28;20912;-90
2022/08/20 04:27:27;;;;;;;30.17;21.03;;;;;;;;;;4974691;28;20454;-90
2022/08/20 04:29:54;;;;;;;28.50;20.80;;;;;;;;;;5014160;28;20426;-90
2022/08/20 04:32:20;;;;;;;25.00;18.70;;;;;;;;;;5003775;28;20479;-90
2022/08/20 04:34:46;;;;;;;28.10;20.90;;;;;;;;;;4997093;28;20809;-90
2022/08/20 04:37:12;;;;;;;29.20;19.60;;;;;;;;;;4976181;28;20488;-90
2022/08/20 04:39:38;;;;;;;32.33;20.90;;;;;;;;;;4982170;28;20841;-90
2022/08/20 04:42:05;;;;;;;29.73;21.90;;;;;;;;;;4983559;28;20475;-90
2022/08/20 04:44:31;;;;;;;29.27;20.37;;;;;;;;;;4981550;28;20448;-91
2022/08/20 04:46:57;;;;;;;32.00;21.80;;;;;;;;;;4987926;28;20490;-91
2022/08/20 04:49:25;;;;;;;27.20;19.47;;;;;;;;;;4975512;28;20765;-90
2022/08/20 04:51:51;;;;;;;25.03;19.37;;;;;;;;;;4977097;28;20451;-90
2022/08/20 04:54:17;;;;;;;30.43;21.30;;;;;;;;;;4630061;28;10000244;-90
2022/08/20 04:56:43;;;;;;;29.60;20.83;;;;;;;;;;4978689;28;20341;-90
2022/08/20 04:59:09;;;;;;;23.57;19.77;;;;;;;;;;4965385;28;20436;-90
2022/08/20 05:01:35;;;;;;;28.40;19.67;;;;;;;;;;4954718;28;20468;-90
2022/08/20 05:04:01;;;;;;;28.40;20.30;;;;;;;;;;4960786;28;20489;-91
2022/08/20 05:06:29;;;;;;;29.90;20.90;;;;;;;;;;4958952;28;20525;-90
2022/08/20 05:08:56;;;;;;;24.63;19.87;;;;;;;;;;4949368;28;20410;-89
2022/08/20 05:11:23;;;;;;;22.67;19.33;;;;;;;;;;4963114;28;20441;-90
2022/08/20 05:13:51;;;;;;;24.77;19.47;;;;;;;;;;4954180;28;20469;-90
2022/08/20 05:16:18;;;;;;;21.77;19.00;;;;;;;;;;4962830;28;20431;-90
2022/08/20 05:18:45;;;;;;;24.10;19.27;;;;;;;;;;4948098;28;20414;-90
2022/08/20 05:21:11;;;;;;;21.07;18.47;;;;;;;;;;4951840;28;20832;-90
2022/08/20 05:23:40;;;;;;;28.57;18.10;;;;;;;;;;4968203;28;20480;-89
2022/08/20 05:26:07;;;;;;;25.10;18.73;;;;;;;;;;4980219;28;20433;-89
2022/08/20 05:28:34;;;;;;;22.80;19.50;;;;;;;;;;4962277;28;20461;-88
2022/08/20 05:31:01;;;;;;;22.57;18.23;;;;;;;;;;4976053;28;20445;-89
2022/08/20 05:33:28;;;;;;;21.60;18.10;;;;;;;;;;4951063;28;20445;-89
2022/08/20 05:35:55;;;;;;;25.70;20.17;;;;;;;;;;4954442;28;20800;-88
2022/08/20 05:38:23;;;;;;;29.97;20.83;;;;;;;;;;4962840;28;20442;-89
2022/08/20 05:40:51;;;;;;;25.90;19.67;;;;;;;;;;4935330;29;20458;-89
2022/08/20 05:43:17;;;;;;;21.10;18.20;;;;;;;;;;4954738;28;20479;-89
2022/08/20 05:45:43;;;;;;;21.20;16.53;;;;;;;;;;4945787;28;20442;-88
2022/08/20 05:48:11;;;;;;;19.27;16.17;;;;;;;;;;4950467;28;21165;-89
2022/08/20 05:50:38;;;;;;;20.63;16.93;;;;;;;;;;4975170;28;20949;-89
2022/08/20 05:53:05;;;;;;;22.70;18.60;;;;;;;;;;4954241;28;20430;-88
2022/08/20 05:55:31;;;;;;;19.73;17.50;;;;;;;;;;4964164;28;20525;-89
2022/08/20 05:58:01;;;;;;;18.90;17.00;;;;;;;;;;4973801;28;20453;-89
2022/08/20 06:00:28;;;;;;;17.73;15.93;;;;;;;;;;4962438;28;20452;-89
2022/08/20 06:05:43;;;;;;;17.50;15.87;;;;;;;;;;4974322;28;20428;-90
2022/08/20 06:08:10;;;;;;;18.77;16.73;;;;;;;;;;4953116;28;20836;-88
2022/08/20 06:10:36;;;;;;;18.23;16.53;;;;;;;;;;4964746;28;20433;-90
2022/08/20 06:13:02;;;;;;;17.30;15.60;;;;;;;;;;4965872;28;20437;-90
2022/08/20 06:15:29;;;;;;;19.17;17.30;;;;;;;;;;4958515;28;20448;-90
2022/08/20 06:17:55;;;;;;;18.63;16.50;;;;;;;;;;4962597;28;20520;-90
2022/08/20 06:20:21;;;;;;;16.70;14.90;;;;;;;;;;4971302;28;20444;-87
2022/08/20 06:22:47;;;;;;;17.37;15.17;;;;;;;;;;4963922;28;20480;-90
2022/08/20 06:25:13;;;;;;;16.50;14.67;;;;;;;;;;4969563;28;20898;-86
2022/08/20 06:27:40;;;;;;;17.13;15.43;;;;;;;;;;4968567;28;20448;-88
2022/08/20 06:30:07;;;;;;;17.27;15.57;;;;;;;;;;4960597;28;20434;-89
2022/08/20 06:32:33;;;;;;;16.10;14.50;;;;;;;;;;4992569;28;20432;-89
2022/08/20 06:35:01;;;;;;;19.50;15.23;;;;;;;;;;4963938;28;20451;-89
2022/08/20 06:37:28;;;;;;;18.47;16.27;;;;;;;;;;4992066;28;20441;-88
2022/08/20 06:39:54;;;;;;;18.10;15.73;;;;;;;;;;4968099;28;20449;-89
2022/08/20 06:42:20;;;;;;;17.03;15.23;;;;;;;;;;4961688;28;20476;-88
2022/08/20 06:44:48;;;;;;;17.57;14.97;;;;;;;;;;4988344;28;20444;-88
2022/08/20 06:47:14;;;;;;;22.90;16.73;;;;;;;;;;4981512;28;20436;-89
2022/08/20 06:49:40;;;;;;;19.40;16.30;;;;;;;;;;4959921;28;20453;-89
2022/08/20 06:52:06;;;;;;;17.70;15.37;;;;;;;;;;4968313;28;20432;-90
2022/08/20 06:54:33;;;;;;;17.43;15.67;;;;;;;;;;4959343;28;20421;-90
2022/08/20 06:56:59;;;;;;;18.37;15.00;;;;;;;;;;4974503;28;20942;-90
2022/08/20 06:59:25;;;;;;;18.70;14.93;;;;;;;;;;4968931;28;20761;-90
2022/08/20 07:01:55;;;;;;;18.80;16.80;;;;;;;;;;4972610;28;20456;-91
2022/08/20 07:04:21;;;;;;;22.43;16.87;;;;;;;;;;4972683;28;20520;-89
2022/08/20 07:06:50;;;;;;;22.70;15.83;;;;;;;;;;4971166;28;20604;-90
2022/08/20 07:09:17;;;;;;;17.03;15.23;;;;;;;;;;4982796;28;20500;-89
2022/08/20 07:11:43;;;;;;;17.50;15.80;;;;;;;;;;4963476;28;20585;-90
2022/08/20 07:14:09;;;;;;;20.57;15.87;;;;;;;;;;4972765;28;20421;-90
2022/08/20 07:16:35;;;;;;;18.47;16.50;;;;;;;;;;4971142;28;20812;-89
2022/08/20 07:19:01;;;;;;;17.83;15.93;;;;;;;;;;4994099;28;20474;-89
2022/08/20 07:21:29;;;;;;;19.33;17.30;;;;;;;;;;4974523;28;20947;-89
2022/08/20 07:23:55;;;;;;;19.50;17.40;;;;;;;;;;4972490;28;20457;-88
2022/08/20 07:26:21;;;;;;;20.77;18.00;;;;;;;;;;4973860;28;20597;-88
2022/08/20 07:28:47;;;;;;;18.43;15.87;;;;;;;;;;4969127;28;20484;-87
2022/08/20 07:33:58;;;;;;;20.80;18.67;;;;;;;;;;4972113;28;20489;-87
2022/08/20 07:36:24;;;;;;;26.47;19.17;;;;;;;;;;4973045;28;20903;-87
2022/08/20 07:38:51;;;;;;;22.00;19.70;;;;;;;;;;4971502;28;20440;-87
2022/08/20 07:41:17;;;;;;;22.07;19.77;;;;;;;;;;4977313;28;20452;-87
2022/08/20 07:43:47;;;;;;;23.77;20.60;;;;;;;;;;4965893;28;20465;-87
2022/08/20 07:46:14;;;;;;;25.00;21.50;;;;;;;;;;4977183;28;20584;-87
2022/08/20 07:48:44;;;;;;;24.93;21.27;;;;;;;;;;4280395;28;10022488;-87
2022/08/20 07:51:10;;;;;;;30.13;23.50;;;;;;;;;;4970296;28;20927;-87
2022/08/20 07:53:37;;;;;;;28.60;23.67;;;;;;;;;;4967259;28;20445;-87
2022/08/20 07:56:05;;;;;;;34.13;25.87;;;;;;;;;;4967974;28;20440;-87
2022/08/20 07:58:31;;;;;;;38.03;30.20;;;;;;;;;;4964114;28;20759;-87
2022/08/20 08:00:57;;;;;;;44.17;34.70;;;;;;;;;;4989375;28;20456;-86
2022/08/20 08:03:24;;;;;;;46.00;35.20;;;;;;;;;;4962788;28;20504;-87
2022/08/20 08:05:50;;;;;;;41.17;34.00;;;;;;;;;;4981440;28;20432;-87
2022/08/20 08:08:19;;;;;;;43.70;35.77;;;;;;;;;;4985188;28;20436;-89
2022/08/20 08:10:46;;;;;;;42.93;35.57;;;;;;;;;;4973911;28;20436;-92
2022/08/20 08:13:13;;;;;;;50.23;38.83;;;;;;;;;;4966024;28;20436;-91
2022/08/20 08:15:43;;;;;;;45.57;34.67;;;;;;;;;;4969016;28;20468;-92
2022/08/20 08:18:11;;;;;;;45.33;33.97;;;;;;;;;;4979628;28;20551;-91
2022/08/20 08:20:39;;;;;;;50.17;37.47;;;;;;;;;;4989185;28;20851;-91
2022/08/20 08:23:06;;;;;;;55.30;40.37;;;;;;;;;;4964660;28;20851;-91
2022/08/20 08:25:32;;;;;;;51.63;35.77;;;;;;;;;;4972713;28;21037;-92
2022/08/20 08:27:59;;;;;;;57.77;40.90;;;;;;;;;;4959410;28;20438;-88
2022/08/20 08:30:30;;;;;;;56.60;41.00;;;;;;;;;;4970833;28;20513;-90
2022/08/20 08:35:44;;;;;;;52.00;35.60;;;;;;;;;;4987530;28;20803;-91
2022/08/20 08:38:10;;;;;;;48.97;35.17;;;;;;;;;;4975025;28;20755;-91
2022/08/20 08:40:37;;;;;;;49.53;35.43;;;;;;;;;;4974151;28;20444;-92
2022/08/20 08:43:03;;;;;;;57.20;39.10;;;;;;;;;;4976226;28;20470;-92
2022/08/20 08:45:44;;;;;;;42.03;32.83;;;;;;;;;;4984948;28;20432;-90
2022/08/20 08:48:17;;;;;;;43.20;31.83;;;;;;;;;;4975714;28;20978;-91
2022/08/20 08:50:45;;;;;;;40.80;27.87;;;;;;;;;;4992485;28;20581;-91
2022/08/20 08:53:17;;;;;;;44.77;33.20;;;;;;;;;;4987276;28;20488;-91
2022/08/20 08:55:42;;;;;;;41.20;29.77;;;;;;;;;;4992754;28;20479;-92
2022/08/20 08:58:09;;;;;;;35.80;29.70;;;;;;;;;;4973097;28;20441;-93
2022/08/20 09:00:35;;;;;;;48.07;31.63;;;;;;;;;;4983563;28;20443;-92
2022/08/20 09:03:04;;;;;;;39.00;31.37;;;;;;;;;;4993729;28;20451;-90
2022/08/20 09:05:34;;;;;;;46.27;31.40;;;;;;;;;;4989162;28;20506;-89
2022/08/20 09:08:02;;;;;;;40.27;31.53;;;;;;;;;;4990856;28;20511;-90
2022/08/20 09:10:28;;;;;;;40.60;31.07;;;;;;;;;;5005148;28;20409;-90
2022/08/20 09:12:54;;;;;;;38.97;28.60;;;;;;;;;;4972912;28;20434;-92
2022/08/20 09:15:26;;;;;;;37.63;28.57;;;;;;;;;;4974108;28;20491;-91
2022/08/20 09:17:53;;;;;;;37.73;29.40;;;;;;;;;;4985248;28;20818;-89
2022/08/20 09:20:19;;;;;;;34.03;28.77;;;;;;;;;;5028061;28;20442;-92
2022/08/20 09:22:45;;;;;;;33.37;27.07;;;;;;;;;;4994854;28;20536;-93
2022/08/20 09:25:11;;;;;;;31.80;26.63;;;;;;;;;;5028009;28;20487;-92
2022/08/20 09:27:40;;;;;;;34.77;27.90;;;;;;;;;;4994597;28;20481;-92
2022/08/20 09:30:07;;;;;;;31.47;27.40;;;;;;;;;;4999197;28;20508;-90
2022/08/20 09:32:33;;;;;;;31.43;27.30;;;;;;;;;;4997121;28;20457;-91
2022/08/20 09:34:59;;;;;;;29.67;25.57;;;;;;;;;;5001513;28;20466;-93
2022/08/20 09:37:28;;;;;;;25.97;22.87;;;;;;;;;;4996055;28;20468;-92
2022/08/20 09:39:54;;;;;;;31.07;26.40;;;;;;;;;;4997460;28;20412;-93
2022/08/20 09:42:23;;;;;;;25.63;22.17;;;;;;;;;;4998784;28;20547;-96
2022/08/20 09:44:49;;;;;;;22.87;20.50;;;;;;;;;;5013406;28;20510;-94
2022/08/20 09:47:16;;;;;;;28.50;22.97;;;;;;;;;;5002286;28;20443;-94
2022/08/20 09:49:43;;;;;;;22.30;19.80;;;;;;;;;;4969369;28;20789;-92
2022/08/20 09:52:11;;;;;;;21.97;19.37;;;;;;;;;;4977247;28;20455;-93
2022/08/20 09:54:37;;;;;;;20.20;18.13;;;;;;;;;;4989199;28;20420;-95
2022/08/20 09:57:04;;;;;;;21.13;18.87;;;;;;;;;;4982065;28;20519;-91
2022/08/20 09:59:32;;;;;;;19.53;17.50;;;;;;;;;;4989147;28;20456;-92
2022/08/20 10:01:59;;;;;;;18.07;15.73;;;;;;;;;;4989908;28;20465;-95
2022/08/20 10:04:27;;;;;;;16.73;14.97;;;;;;;;;;4999667;28;20495;-93
2022/08/20 10:06:53;;;;;;;19.87;15.00;;;;;;;;;;5011061;28;20435;-93
2022/08/20 10:09:19;;;;;;;17.93;14.20;;;;;;;;;;4986829;28;20421;-93
2022/08/20 10:11:45;;;;;;;16.40;14.37;;;;;;;;;;4980192;28;20424;-93
2022/08/20 10:14:14;;;;;;;16.50;14.80;;;;;;;;;;4993568;28;20467;-92
2022/08/20 10:16:40;;;;;;;15.83;14.40;;;;;;;;;;4985302;28;20442;-91
2022/08/20 10:19:07;;;;;;;15.23;13.87;;;;;;;;;;4982955;28;20418;-92
2022/08/20 10:21:36;;;;;;;19.33;13.40;;;;;;;;;;4981249;28;20428;-93
2022/08/20 10:24:03;;;;;;;14.77;13.33;;;;;;;;;;5013829;28;20836;-92
2022/08/20 10:26:32;;;;;;;14.23;12.83;;;;;;;;;;4993267;28;20455;-94
2022/08/20 10:28:58;;;;;;;15.10;13.70;;;;;;;;;;4983932;28;20448;-94
2022/08/20 10:31:24;;;;;;;14.87;13.37;;;;;;;;;;5005374;28;20479;-94
2022/08/20 10:33:50;;;;;;;15.03;13.73;;;;;;;;;;4989202;28;20446;-95
2022/08/20 10:36:17;;;;;;;15.37;13.80;;;;;;;;;;4983733;28;20440;-94
2022/08/20 10:38:43;;;;;;;15.27;13.83;;;;;;;;;;4988335;28;20588;-93
2022/08/20 10:41:09;;;;;;;16.77;15.20;;;;;;;;;;4990756;28;20437;-90
2022/08/20 10:43:36;;;;;;;14.80;13.30;;;;;;;;;;4994867;28;20552;-91
2022/08/20 10:46:02;;;;;;;14.27;12.90;;;;;;;;;;5006069;28;20467;-92
2022/08/20 10:48:31;;;;;;;17.80;15.90;;;;;;;;;;5009636;28;20926;-93
2022/08/20 10:51:00;;;;;;;18.07;15.27;;;;;;;;;;4986567;28;20447;-95
2022/08/20 10:53:26;;;;;;;16.00;14.53;;;;;;;;;;4981840;28;20782;-94
2022/08/20 10:59:21;;;;;;;14.53;13.23;;;;;;;;;;4995862;28;20772;-94
2022/08/20 11:01:47;;;;;;;18.17;16.30;;;;;;;;;;4973947;28;20476;-94
2022/08/20 11:04:17;;;;;;;14.43;13.43;;;;;;;;;;4997778;28;20487;-94
2022/08/20 11:06:43;;;;;;;14.97;13.50;;;;;;;;;;4970244;28;20453;-91
2022/08/20 11:09:11;;;;;;;20.23;18.27;;;;;;;;;;4977924;28;20994;-90
2022/08/20 11:11:37;;;;;;;21.80;19.80;;;;;;;;;;4968102;28;20476;-92
2022/08/20 11:14:04;;;;;;;19.57;17.47;;;;;;;;;;4630394;28;10000089;-93
2022/08/20 11:16:30;;;;;;;20.47;18.37;;;;;;;;;;4973894;28;20258;-91
2022/08/20 11:18:56;;;;;;;18.60;16.90;;;;;;;;;;4968758;28;20440;-93
2022/08/20 11:21:24;;;;;;;17.57;15.77;;;;;;;;;;4977553;28;20444;-93
2022/08/20 11:23:52;;;;;;;18.70;16.90;;;;;;;;;;4972185;28;20511;-93
2022/08/20 11:26:21;;;;;;;18.67;17.17;;;;;;;;;;4998874;28;20425;-92
2022/08/20 11:28:47;;;;;;;18.40;16.37;;;;;;;;;;4971070;28;20448;-91
2022/08/20 11:31:20;;;;;;;17.43;15.73;;;;;;;;;;4982201;28;20428;-92
2022/08/20 11:33:47;;;;;;;19.17;17.13;;;;;;;;;;4974756;28;20966;-93
2022/08/20 11:36:16;;;;;;;17.73;16.23;;;;;;;;;;4984169;28;20424;-91
2022/08/20 11:38:51;;;;;;;18.70;17.00;;;;;;;;;;4983336;28;20428;-90
2022/08/20 11:41:25;;;;;;;15.60;14.20;;;;;;;;;;4986472;28;20491;-93
2022/08/20 11:46:27;;;;;;;17.90;16.30;;;;;;;;;;5020747;23;20493;-95
2022/08/20 11:48:54;;;;;;;18.00;16.30;;;;;;;;;;5000655;23;20486;-91
2022/08/20 11:51:20;;;;;;;19.70;18.00;;;;;;;;;;4993065;28;20533;-92
2022/08/20 11:59:07;;;;;;;17.50;16.00;;;;;;;;;;5191301;23;20476;-95
2022/08/20 12:04:12;;;;;;;15.70;14.40;;;;;;;;;;5762187;23;20674;-92
2022/08/20 12:06:41;;;;;;;16.97;15.57;;;;;;;;;;4971892;28;20453;-91
2022/08/20 12:12:01;;;;;;;14.30;13.10;;;;;;;;;;4939625;29;20487;-89
2022/08/20 12:14:30;;;;;;;16.20;14.90;;;;;;;;;;4958049;29;20553;-90
2022/08/20 12:16:56;;;;;;;17.03;15.57;;;;;;;;;;4939734;29;20444;-90
2022/08/20 12:19:25;;;;;;;16.80;15.50;;;;;;;;;;4939758;29;20435;-90
2022/08/20 12:21:57;;;;;;;15.83;14.37;;;;;;;;;;4936828;29;20791;-89
2022/08/20 12:24:40;;;;;;;16.17;14.77;;;;;;;;;;4948653;29;20755;-91
2022/08/20 12:27:10;;;;;;;16.00;14.57;;;;;;;;;;4908302;29;20499;-89
2022/08/20 12:29:37;;;;;;;15.80;14.50;;;;;;;;;;4955635;29;20529;-89
2022/08/20 12:32:05;;;;;;;15.03;13.93;;;;;;;;;;4945396;29;20860;-91
2022/08/20 12:34:32;;;;;;;15.00;14.00;;;;;;;;;;4946537;29;20479;-90
2022/08/20 12:37:03;;;;;;;15.40;14.17;;;;;;;;;;4939007;29;20427;-92
2022/08/20 12:39:32;;;;;;;14.63;13.17;;;;;;;;;;4953901;29;20462;-91
2022/08/20 12:41:59;;;;;;;15.67;14.53;;;;;;;;;;4946995;29;20434;-92
2022/08/20 12:44:26;;;;;;;15.47;14.27;;;;;;;;;;4948403;29;20463;-91
2022/08/20 12:46:52;;;;;;;13.87;12.83;;;;;;;;;;4958738;29;20423;-91
2022/08/20 12:49:19;;;;;;;17.20;15.70;;;;;;;;;;4952857;29;20512;-88
2022/08/20 12:51:45;;;;;;;14.63;13.50;;;;;;;;;;4963710;29;20430;-91
2022/08/20 12:54:11;;;;;;;14.97;13.77;;;;;;;;;;4947911;29;20435;-91
2022/08/20 12:56:37;;;;;;;16.27;15.07;;;;;;;;;;4964191;29;20438;-89
2022/08/20 12:59:10;;;;;;;14.23;13.30;;;;;;;;;;4928367;29;20503;-92
2022/08/20 13:01:37;;;;;;;16.70;15.37;;;;;;;;;;4922313;29;20435;-91
2022/08/20 13:04:03;;;;;;;13.40;12.20;;;;;;;;;;4956127;29;20826;-92
2022/08/20 13:06:29;;;;;;;15.90;14.70;;;;;;;;;;4943567;29;20434;-91
2022/08/20 13:08:55;;;;;;;14.37;13.10;;;;;;;;;;4938125;29;20454;-93
2022/08/20 13:11:21;;;;;;;14.00;12.97;;;;;;;;;;4962664;28;20472;-92
2022/08/20 13:13:47;;;;;;;14.00;13.10;;;;;;;;;;4619548;28;10000054;-92
2022/08/20 13:16:13;;;;;;;13.30;12.30;;;;;;;;;;4960589;28;20182;-92
2022/08/20 13:18:39;;;;;;;13.23;11.97;;;;;;;;;;4981631;28;20445;-91
2022/08/20 13:21:05;;;;;;;14.47;13.30;;;;;;;;;;4967112;28;20472;-92
2022/08/20 13:23:31;;;;;;;14.40;13.20;;;;;;;;;;4971809;28;20488;-91
2022/08/20 13:25:57;;;;;;;12.07;11.17;;;;;;;;;;4965737;28;20424;-90
2022/08/20 13:28:23;;;;;;;13.67;12.67;;;;;;;;;;4975117;28;20529;-93
2022/08/20 13:30:50;;;;;;;14.53;13.40;;;;;;;;;;4974466;28;20446;-92
2022/08/20 13:33:15;;;;;;;12.87;11.93;;;;;;;;;;4967338;28;20458;-91
2022/08/20 13:35:41;;;;;;;12.67;11.57;;;;;;;;;;4967401;28;20440;-93
2022/08/20 13:38:10;;;;;;;12.90;11.87;;;;;;;;;;4980201;28;21105;-91
2022/08/20 13:40:36;;;;;;;15.17;13.43;;;;;;;;;;4979475;28;20429;-92
2022/08/20 13:43:03;;;;;;;13.20;12.30;;;;;;;;;;4964680;28;20474;-92
2022/08/20 13:45:29;;;;;;;12.50;11.60;;;;;;;;;;4990365;28;20457;-90
2022/08/20 13:47:55;;;;;;;13.33;12.00;;;;;;;;;;4972678;28;20466;-93
2022/08/20 13:50:24;;;;;;;13.70;12.37;;;;;;;;;;4957483;29;20528;-92
2022/08/20 13:52:50;;;;;;;13.77;12.57;;;;;;;;;;4975926;28;20436;-94
2022/08/20 13:55:17;;;;;;;13.53;12.17;;;;;;;;;;4936362;29;20454;-90
2022/08/20 13:57:44;;;;;;;15.40;14.00;;;;;;;;;;4959651;28;20994;-91
2022/08/20 14:00:12;;;;;;;15.07;13.53;;;;;;;;;;4957588;28;21146;-88
2022/08/20 14:02:38;;;;;;;12.47;11.27;;;;;;;;;;4968202;28;20496;-87
2022/08/20 14:05:05;;;;;;;13.90;12.60;;;;;;;;;;4949504;28;20512;-90
2022/08/20 14:07:39;;;;;;;15.00;13.60;;;;;;;;;;4973708;28;21018;-90
2022/08/20 14:10:07;;;;;;;13.97;12.87;;;;;;;;;;4967093;28;20905;-90
2022/08/20 14:12:38;;;;;;;14.43;12.87;;;;;;;;;;4958349;28;20442;-89
2022/08/20 14:15:05;;;;;;;15.87;14.37;;;;;;;;;;4956953;28;20547;-89
2022/08/20 14:17:36;;;;;;;14.60;13.30;;;;;;;;;;4978632;28;20441;-91
2022/08/20 14:20:05;;;;;;;12.77;11.47;;;;;;;;;;4962184;28;20442;-90
2022/08/20 14:22:32;;;;;;;11.53;10.60;;;;;;;;;;4967810;28;20460;-91
2022/08/20 14:25:02;;;;;;;11.77;10.67;;;;;;;;;;4967654;28;20498;-90
2022/08/20 14:27:29;;;;;;;10.53;9.73;;;;;;;;;;4942027;29;20431;-89
2022/08/20 14:29:56;;;;;;;10.63;9.53;;;;;;;;;;4978019;28;20986;-90
2022/08/20 14:32:25;;;;;;;9.67;8.67;;;;;;;;;;4977973;28;20781;-91
2022/08/20 14:34:52;;;;;;;43.60;39.53;;;;;;;;;;4949471;28;21041;-91
2022/08/20 14:37:23;;;;;;;9.77;8.30;;;;;;;;;;4954264;29;20504;-90
2022/08/20 14:39:51;;;;;;;12.27;8.17;;;;;;;;;;4970594;28;20437;-90
2022/08/20 14:42:17;;;;;;;7.53;6.70;;;;;;;;;;4978426;28;20492;-90
2022/08/20 14:44:52;;;;;;;7.63;6.17;;;;;;;;;;5064506;23;20470;-90
2022/08/20 14:47:37;;;;;;;9.97;7.53;;;;;;;;;;5063582;28;20480;-88
2022/08/20 14:50:06;;;;;;;10.43;7.60;;;;;;;;;;5005822;28;20435;-91
2022/08/20 14:52:35;;;;;;;9.80;8.67;;;;;;;;;;5021589;28;20511;-90
2022/08/20 14:55:02;;;;;;;13.50;8.10;;;;;;;;;;5006532;28;20436;-89
2022/08/20 14:57:29;;;;;;;10.00;9.00;;;;;;;;;;5053179;28;20459;-89
2022/08/20 14:59:59;;;;;;;8.70;8.10;;;;;;;;;;5018541;28;20808;-89
2022/08/20 15:02:43;;;;;;;10.10;8.20;;;;;;;;;;5073149;23;20552;-88
2022/08/20 15:05:19;;;;;;;8.73;7.90;;;;;;;;;;5005243;28;20444;-92
2022/08/20 15:07:46;;;;;;;9.17;8.27;;;;;;;;;;4985542;28;20448;-92
2022/08/20 15:10:23;;;;;;;8.97;8.17;;;;;;;;;;4982432;28;20879;-91
2022/08/20 15:12:53;;;;;;;9.43;8.43;;;;;;;;;;4993592;28;20424;-90
2022/08/20 15:15:22;;;;;;;9.27;7.63;;;;;;;;;;4993715;28;20441;-91
2022/08/20 15:18:17;;;;;;;9.17;8.30;;;;;;;;;;4990002;28;20440;-90
2022/08/20 15:20:46;;;;;;;9.50;8.60;;;;;;;;;;4964907;28;20433;-90
2022/08/20 15:23:13;;;;;;;9.90;8.97;;;;;;;;;;4964483;28;20461;-91
2022/08/20 15:25:42;;;;;;;9.33;8.47;;;;;;;;;;4984823;28;20507;-91
2022/08/20 15:28:09;;;;;;;11.23;9.47;;;;;;;;;;4993783;28;20427;-88
2022/08/20 15:30:35;;;;;;;10.90;9.73;;;;;;;;;;4967424;28;20436;-90
2022/08/20 15:33:02;;;;;;;14.40;9.87;;;;;;;;;;4981012;28;20902;-90
2022/08/20 15:35:28;;;;;;;9.70;8.70;;;;;;;;;;4287144;28;10000697;-91
2022/08/20 15:37:55;;;;;;;10.90;8.20;;;;;;;;;;4981516;28;20200;-91
2022/08/20 15:40:23;;;;;;;10.83;8.27;;;;;;;;;;4983715;28;20446;-90
2022/08/20 15:42:49;;;;;;;11.00;9.17;;;;;;;;;;4986601;28;20467;-91
2022/08/20 15:45:16;;;;;;;9.97;9.00;;;;;;;;;;4982394;28;20992;-90
2022/08/20 15:48:15;;;;;;;10.57;9.53;;;;;;;;;;4976618;28;20493;-90
2022/08/20 15:50:54;;;;;;;10.10;9.00;;;;;;;;;;4934906;28;20493;-89
2022/08/20 15:53:32;;;;;;;9.83;8.43;;;;;;;;;;4968309;28;20432;-89
2022/08/20 15:56:18;;;;;;;12.43;9.40;;;;;;;;;;4974297;28;20423;-88
2022/08/20 15:58:48;;;;;;;15.47;13.97;;;;;;;;;;4971410;28;20444;-88
2022/08/20 16:01:32;;;;;;;11.57;9.30;;;;;;;;;;4983899;28;20515;-93
2022/08/20 16:04:14;;;;;;;8.60;7.80;;;;;;;;;;4965781;28;20496;-93
2022/08/20 16:06:42;;;;;;;7.80;6.80;;;;;;;;;;4984153;28;20471;-91
2022/08/20 16:09:20;;;;;;;8.37;6.73;;;;;;;;;;4973185;28;20420;-91
2022/08/20 16:12:14;;;;;;;10.13;9.07;;;;;;;;;;4987788;28;20420;-88